Forside
METAR-TAF:

METAR-TAF

Lufthavne :

Chicago Executive Airport

Wheeling / Prospect Heights, Illinois, USA

Breddekreds: 42-07-15N, længdekreds: 087-54-17W, højde: 197 m

Aktuelle vejr

Denne rapport blev lavet for 1 time og 1 minutter siden, kl. 02:52 UTC
Vind 5 kt fra vestnordvest
Temperatur -4°C
Fugtighed 54%
Tryk 1018 hPa
Sigt: 16.1 km
skyfri

METAR: KPWK 280252Z 30005KT 10SM CLR M04/M12 A3006 RMK AO2 SLP188 T10441122 53006

Tid: 21:53 (03:53 UTC)


TAF: fraværende

Vejrobservationer og prognoser fra mere end 4000 lufthavne (METAR og TAF).

De gule og røde prikker repræsenterer de meteorologiske stationer.

Flyt musen over at se navnet på stationen.

Så klik over at se vejr observationer og prognoser.

At skifte det kort: Klik på de grønne knapper med et sort kors for at zoome ind; på den grønne knap med en bindestreg for at zoome ud; eller på de grønne pile for tilstødende kort.


METAR-TAF: